Hlavní strana
METAR-TAF:

METAR-TAF

Letiště :

Letiště Benátky Marco Polo

Benátky, Itálie

zeměpisná šířka: 45-30N, zeměpisná délka: 012-20E, výška: 2 m

Aktuální stav počasí

Zpráva byla vytvořena před 39 minutami, v 14:50 UTC
Východní vítr 10 kt, proměnlivý mezi východoseverovýchodním a jihovýchodním
Teplota 13°C
Vlhkost vzduchu 35%
Tlak 1030 hPa
Viditelnost 10 km a více
Žádná oblačnost pod 1500 m, nevyskytují se cumulonimby.

METAR: LIPZ 201450Z 09010KT 070V130 CAVOK 13/M02 Q1030 NOSIG

Čas: 16:29 (15:29 UTC)

Předpověď počasí

Zpráva byla vytvořena před 4 hodinami a 29 minutami, v 11:00 UTC
Předpověď platná od 20 v 12 UTC do 21 v 18 UTC
Severovýchodní vítr 12 kt
Viditelnost 10 km a více
Žádná oblačnost pod 1500 m, nevyskytují se cumulonimby.

TAF: LIPZ 201100Z 2012/2118 04012KT CAVOK

Stav a předpovědi počasí z více než 4 000 letišť (zprávy METAR a TAF).

Červené a žluté tečky na mapě představují dostupné meteorologické stanice.

Když kurzor umístíte na tečku, zobrazí se název stanice.

Pak kliknutím zobrazíte stav a předpověď počasí.

Chcete-li změnit mapu, kliknutím na zelené tlačítko se znaménkem +mapu přiblížíte, kliknutím na zelené tlačítko se znaménkem – mapu oddálíte a kliknutím na zelené šipky přejdete na sousední mapy.


METAR-TAF: